createdAt,value
2023-06-30T00:01:30.294Z,8.77
2023-06-30T00:03:58.065Z,6.72
2023-06-30T00:06:25.283Z,8.32
2023-06-30T00:08:52.579Z,7.15
2023-06-30T00:11:24.712Z,11.02
2023-06-30T00:13:53.336Z,7.47
2023-06-30T00:16:20.928Z,8.32
2023-06-30T00:18:48.235Z,9.07
2023-06-30T00:21:15.333Z,7.75
2023-06-30T00:23:42.316Z,10.05
2023-06-30T00:26:09.320Z,8.13
2023-06-30T00:28:37.215Z,10.05
2023-06-30T00:31:04.257Z,9.10
2023-06-30T00:33:31.259Z,7.68
2023-06-30T00:35:58.269Z,8.95
2023-06-30T00:38:25.266Z,11.07
2023-06-30T00:40:52.301Z,8.80
2023-06-30T00:43:19.298Z,11.20
2023-06-30T00:45:46.586Z,9.68
2023-06-30T00:48:14.029Z,7.93
2023-06-30T00:50:41.047Z,8.82
2023-06-30T00:53:08.070Z,10.38
2023-06-30T00:55:36.174Z,9.13
2023-06-30T00:58:03.197Z,9.95
2023-06-30T01:00:30.310Z,10.13
2023-06-30T01:03:21.345Z,12.32
2023-06-30T01:06:00.718Z,8.73
2023-06-30T01:08:49.335Z,10.48
2023-06-30T01:11:17.203Z,10.63
2023-06-30T01:13:46.053Z,9.50
2023-06-30T01:16:14.179Z,11.13
2023-06-30T01:18:43.491Z,10.52
2023-06-30T01:21:14.934Z,12.35
2023-06-30T01:23:48.789Z,11.43
2023-06-30T01:26:17.020Z,10.88
2023-06-30T01:28:44.859Z,11.15
2023-06-30T01:31:12.396Z,11.30
2023-06-30T01:33:40.484Z,12.57
2023-06-30T01:36:09.457Z,9.63
2023-06-30T01:38:36.553Z,13.80
2023-06-30T01:41:06.111Z,30.35
2023-06-30T01:43:34.205Z,10.43
2023-06-30T01:46:01.636Z,11.27
2023-06-30T01:48:29.355Z,12.20
2023-06-30T01:51:01.581Z,11.02
2023-06-30T01:53:28.794Z,9.77
2023-06-30T01:55:56.353Z,11.50
2023-06-30T01:58:23.467Z,12.85
2023-06-30T02:00:50.481Z,11.07
2023-06-30T02:03:17.538Z,11.82
2023-06-30T02:05:44.863Z,12.23
2023-06-30T02:08:11.998Z,11.68
2023-06-30T02:10:38.978Z,10.95
2023-06-30T02:13:06.004Z,11.00
2023-06-30T02:15:32.995Z,15.02
2023-06-30T02:18:00.057Z,12.63
2023-06-30T02:20:27.271Z,12.07
2023-06-30T02:22:54.631Z,12.07
2023-06-30T02:25:21.894Z,12.73
2023-06-30T02:27:48.968Z,11.80
2023-06-30T02:30:16.100Z,15.60
2023-06-30T02:32:43.291Z,11.93
2023-06-30T02:35:10.943Z,14.82
2023-06-30T02:37:38.593Z,11.75
2023-06-30T02:40:06.875Z,11.27
2023-06-30T02:42:33.897Z,10.18
2023-06-30T02:45:00.914Z,11.00
2023-06-30T02:47:27.943Z,11.23
2023-06-30T02:49:54.999Z,10.48
2023-06-30T02:52:21.958Z,12.80
2023-06-30T02:54:49.029Z,16.08
2023-06-30T02:57:15.988Z,16.65
2023-06-30T02:59:42.954Z,13.75
2023-06-30T03:02:10.195Z,9.68
2023-06-30T03:04:37.324Z,9.52
2023-06-30T03:07:04.550Z,9.85
2023-06-30T03:09:31.544Z,10.82
2023-06-30T03:11:58.529Z,9.27
2023-06-30T03:14:25.465Z,7.25
2023-06-30T03:16:52.559Z,7.03
2023-06-30T03:19:19.613Z,10.35
2023-06-30T03:21:46.655Z,6.03
2023-06-30T03:24:13.717Z,6.65
2023-06-30T03:26:40.725Z,5.80
2023-06-30T03:29:07.678Z,6.40
2023-06-30T03:31:34.629Z,7.07
2023-06-30T03:34:01.690Z,4.50
2023-06-30T03:36:28.808Z,4.43
2023-06-30T03:38:55.806Z,4.40
2023-06-30T03:41:22.841Z,5.05
2023-06-30T03:43:49.882Z,5.95
2023-06-30T03:46:21.507Z,5.80
2023-06-30T03:48:48.506Z,12.98
2023-06-30T03:51:16.076Z,5.68
2023-06-30T03:53:44.014Z,6.13
2023-06-30T03:56:11.473Z,4.32
2023-06-30T03:58:38.495Z,5.50
2023-06-30T04:01:06.058Z,4.25
2023-06-30T04:03:33.366Z,4.32
2023-06-30T04:06:00.614Z,3.97
2023-06-30T04:08:27.830Z,8.00
2023-06-30T04:10:54.877Z,4.07
2023-06-30T04:13:21.926Z,5.22
2023-06-30T04:15:48.937Z,4.65
2023-06-30T04:18:22.115Z,4.45
2023-06-30T04:20:49.107Z,5.20
2023-06-30T04:23:16.141Z,6.32
2023-06-30T04:25:43.367Z,7.10
2023-06-30T04:28:10.587Z,4.32
2023-06-30T04:30:37.613Z,5.70
2023-06-30T04:33:10.507Z,4.78
2023-06-30T04:35:37.562Z,5.53
2023-06-30T04:38:04.544Z,6.32
2023-06-30T04:40:31.513Z,4.15
2023-06-30T04:42:58.495Z,4.07
2023-06-30T04:45:25.463Z,5.93
2023-06-30T04:47:52.468Z,5.10
2023-06-30T04:50:19.515Z,4.20
2023-06-30T04:52:46.505Z,4.43
2023-06-30T04:55:13.514Z,4.35
2023-06-30T04:57:40.611Z,4.05
2023-06-30T05:00:09.268Z,5.57
2023-06-30T05:02:36.304Z,5.78
2023-06-30T05:05:03.537Z,6.15
2023-06-30T05:07:30.620Z,5.10
2023-06-30T05:09:57.646Z,6.88
2023-06-30T05:12:24.771Z,5.38
2023-06-30T05:14:51.744Z,6.07
2023-06-30T05:17:18.872Z,7.03
2023-06-30T05:19:45.943Z,4.88
2023-06-30T05:22:12.918Z,5.95
2023-06-30T05:24:39.931Z,5.15
2023-06-30T05:27:06.919Z,5.38
2023-06-30T05:29:34.420Z,5.65
2023-06-30T05:32:01.499Z,5.38
2023-06-30T05:34:30.007Z,4.10
2023-06-30T05:36:57.282Z,4.55
2023-06-30T05:39:24.720Z,4.55
2023-06-30T05:41:51.727Z,4.38
2023-06-30T05:44:18.903Z,4.78
2023-06-30T05:46:45.912Z,4.00
2023-06-30T05:49:13.629Z,6.60
2023-06-30T05:51:40.668Z,4.40
2023-06-30T05:54:07.729Z,4.45
2023-06-30T05:56:34.714Z,4.53
2023-06-30T05:59:01.715Z,4.05
2023-06-30T06:01:28.812Z,5.68
2023-06-30T06:03:56.677Z,7.10
2023-06-30T06:06:24.008Z,4.90
2023-06-30T06:08:51.060Z,5.15
2023-06-30T06:11:18.120Z,4.55
2023-06-30T06:13:45.105Z,4.20
2023-06-30T06:16:12.354Z,4.72
2023-06-30T06:18:39.512Z,4.40
2023-06-30T06:21:06.600Z,4.13
2023-06-30T06:23:34.110Z,5.93
2023-06-30T06:26:03.515Z,4.85
2023-06-30T06:28:30.548Z,3.90
2023-06-30T06:30:57.933Z,4.93
2023-06-30T06:33:24.921Z,4.28
2023-06-30T06:35:52.752Z,4.43
2023-06-30T06:38:20.790Z,4.45
2023-06-30T06:40:48.430Z,3.60
2023-06-30T06:43:15.510Z,7.50
2023-06-30T06:45:45.665Z,5.00
2023-06-30T06:48:28.028Z,4.28
2023-06-30T06:50:57.265Z,4.10
2023-06-30T06:53:29.529Z,4.15
2023-06-30T06:55:57.655Z,3.40
2023-06-30T06:58:30.269Z,5.07
2023-06-30T07:00:57.548Z,4.60
2023-06-30T07:05:52.114Z,4.03
2023-06-30T07:08:20.523Z,4.28
2023-06-30T07:10:48.440Z,4.63
2023-06-30T07:13:23.449Z,4.15
2023-06-30T07:15:51.659Z,3.88
2023-06-30T07:18:20.241Z,5.18
2023-06-30T07:20:52.004Z,5.03
2023-06-30T07:23:19.529Z,5.13
2023-06-30T07:25:48.031Z,5.45
2023-06-30T07:28:15.729Z,4.50
2023-06-30T07:30:45.881Z,5.32
2023-06-30T07:33:13.754Z,4.32
2023-06-30T07:35:41.126Z,4.43
2023-06-30T07:38:08.161Z,6.35
2023-06-30T07:40:46.426Z,4.43
2023-06-30T07:43:21.701Z,4.80
2023-06-30T07:45:48.999Z,4.75
2023-06-30T07:48:16.426Z,5.97
2023-06-30T07:50:54.535Z,4.35
2023-06-30T07:53:26.410Z,4.20
2023-06-30T07:55:53.493Z,6.93
2023-06-30T07:58:20.516Z,5.22
2023-06-30T08:00:47.555Z,4.57
2023-06-30T08:03:21.310Z,5.22
2023-06-30T08:05:49.034Z,11.63
2023-06-30T08:08:16.481Z,4.63
2023-06-30T08:10:44.949Z,4.45
2023-06-30T08:13:12.225Z,5.28
2023-06-30T08:15:39.279Z,4.88
2023-06-30T08:18:10.155Z,8.52
2023-06-30T08:20:38.050Z,4.93
2023-06-30T08:23:05.499Z,4.70
2023-06-30T08:25:32.494Z,5.43
2023-06-30T08:28:00.497Z,5.57
2023-06-30T08:30:27.469Z,6.53
2023-06-30T08:32:57.638Z,5.53
2023-06-30T08:37:53.862Z,4.30
2023-06-30T08:40:26.925Z,4.03
2023-06-30T08:42:56.358Z,5.18
2023-06-30T08:45:30.046Z,4.80
2023-06-30T08:48:03.487Z,6.80
2023-06-30T08:50:30.571Z,5.93
2023-06-30T08:52:58.753Z,8.45
2023-06-30T08:55:26.997Z,9.82
2023-06-30T08:58:00.327Z,5.85
2023-06-30T09:00:31.629Z,7.75
2023-06-30T09:03:05.924Z,6.85
2023-06-30T09:05:35.757Z,7.50
2023-06-30T09:08:09.704Z,4.90
2023-06-30T09:10:38.543Z,8.02
2023-06-30T09:13:06.766Z,5.75
2023-06-30T10:15:27.646Z,6.25
2023-06-30T10:17:56.507Z,4.25
2023-06-30T10:20:33.891Z,3.90
2023-06-30T10:23:10.593Z,4.57
2023-06-30T10:25:39.771Z,4.05
2023-06-30T10:28:10.154Z,4.13
2023-06-30T10:49:39.545Z,4.50
2023-06-30T10:52:25.982Z,2.70
2023-06-30T10:54:53.115Z,3.22
2023-06-30T10:57:20.986Z,3.47
2023-06-30T11:00:03.094Z,3.63
2023-06-30T11:02:33.005Z,3.70
2023-06-30T11:05:30.056Z,3.63
2023-06-30T11:08:02.855Z,4.65
2023-06-30T11:10:35.742Z,3.38
2023-06-30T11:13:10.494Z,5.07
2023-06-30T11:15:42.033Z,4.35
2023-06-30T11:18:25.244Z,3.63
2023-06-30T11:21:04.042Z,5.82
2023-06-30T11:23:35.290Z,4.63
2023-06-30T11:26:16.424Z,4.35
2023-06-30T11:28:45.229Z,2.90
2023-06-30T11:31:13.094Z,3.10
2023-06-30T11:33:41.801Z,5.00
2023-06-30T11:36:16.580Z,5.00
2023-06-30T11:38:50.094Z,3.25
2023-06-30T11:41:24.681Z,3.15
2023-06-30T11:43:54.083Z,3.22
2023-06-30T11:46:21.816Z,3.45
2023-06-30T11:48:50.662Z,3.05
2023-06-30T11:51:20.579Z,3.80
2023-06-30T11:53:48.009Z,3.58
2023-06-30T11:56:15.405Z,3.20
2023-06-30T11:58:52.775Z,4.22
2023-06-30T12:01:22.785Z,5.13
2023-06-30T12:04:15.935Z,4.28
2023-06-30T12:06:46.702Z,2.50
2023-06-30T12:09:13.800Z,2.67
2023-06-30T12:11:46.052Z,2.85
2023-06-30T12:14:16.345Z,3.08
2023-06-30T12:16:49.461Z,3.03
2023-06-30T12:19:16.928Z,3.47
2023-06-30T12:21:53.850Z,3.53
2023-06-30T12:24:22.507Z,5.95
2023-06-30T12:26:51.153Z,4.30
2023-06-30T12:29:18.780Z,4.38
2023-06-30T12:31:48.979Z,3.28
2023-06-30T12:34:36.344Z,2.75
2023-06-30T12:37:03.963Z,5.22
2023-06-30T12:39:30.989Z,4.13
2023-06-30T12:41:57.974Z,3.55
2023-06-30T12:44:25.049Z,4.10
2023-06-30T12:47:03.291Z,3.58
2023-06-30T12:49:33.469Z,4.63
2023-06-30T12:52:03.370Z,4.80
2023-06-30T12:54:30.876Z,4.40
2023-06-30T12:56:57.835Z,3.35
2023-06-30T12:59:24.908Z,4.05
2023-06-30T13:01:51.969Z,2.83
2023-06-30T13:04:18.993Z,3.05
2023-06-30T13:06:45.926Z,3.83
2023-06-30T13:09:12.933Z,3.33
2023-06-30T13:11:39.921Z,5.82
2023-06-30T13:14:06.872Z,2.75
2023-06-30T13:16:33.892Z,4.63
2023-06-30T13:19:01.706Z,5.65
2023-06-30T13:21:28.652Z,2.30
2023-06-30T13:23:55.754Z,2.83
2023-06-30T13:26:22.651Z,3.15
2023-06-30T13:28:49.638Z,3.40
2023-06-30T13:31:16.624Z,2.97
2023-06-30T13:33:43.517Z,3.30
2023-06-30T13:36:11.870Z,2.97
2023-06-30T13:38:38.862Z,2.60
2023-06-30T13:41:05.850Z,3.75
2023-06-30T13:43:32.872Z,5.93
2023-06-30T13:46:00.748Z,2.65
2023-06-30T13:48:28.249Z,2.30
2023-06-30T13:50:55.158Z,2.83
2023-06-30T13:53:23.903Z,2.72
2023-06-30T13:55:59.513Z,4.53
2023-06-30T13:58:26.435Z,6.45
2023-06-30T14:00:53.838Z,3.45
2023-06-30T14:03:21.216Z,3.80
2023-06-30T14:05:53.399Z,4.47
2023-06-30T14:08:24.406Z,3.45
2023-06-30T14:10:51.747Z,4.00
2023-06-30T14:13:19.185Z,2.67
2023-06-30T14:15:46.703Z,6.07
2023-06-30T14:18:14.495Z,4.30
2023-06-30T14:20:41.919Z,3.03
2023-06-30T14:23:09.253Z,2.67
2023-06-30T14:25:36.626Z,3.05
2023-06-30T14:28:04.169Z,4.22
2023-06-30T14:30:33.557Z,2.28
2023-06-30T14:33:04.380Z,7.10
2023-06-30T14:35:32.441Z,3.72
2023-06-30T14:37:59.831Z,6.13
2023-06-30T14:40:36.846Z,4.25
2023-06-30T14:43:05.230Z,6.30
2023-06-30T14:45:32.729Z,3.00
2023-06-30T14:48:00.161Z,6.18
2023-06-30T14:50:27.604Z,4.55
2023-06-30T14:52:54.985Z,2.38
2023-06-30T14:55:22.317Z,3.10
2023-06-30T14:57:50.905Z,3.40
2023-06-30T15:00:18.454Z,2.75
2023-06-30T15:02:45.963Z,3.28
2023-06-30T15:05:13.472Z,2.20
2023-06-30T15:07:40.803Z,3.35
2023-06-30T15:10:08.391Z,3.72
2023-06-30T15:12:35.971Z,3.50
2023-06-30T15:15:03.885Z,3.95
2023-06-30T15:17:31.263Z,3.05
2023-06-30T15:19:58.709Z,6.68
2023-06-30T15:22:30.231Z,4.53
2023-06-30T15:25:00.451Z,4.78
2023-06-30T15:27:28.565Z,3.22
2023-06-30T15:29:55.905Z,3.70
2023-06-30T15:32:23.330Z,3.85
2023-06-30T15:34:50.703Z,4.15
2023-06-30T15:37:18.755Z,3.72
2023-06-30T15:39:46.898Z,3.70
2023-06-30T15:42:14.320Z,3.42
2023-06-30T15:44:41.595Z,2.67
2023-06-30T15:47:08.861Z,5.57
2023-06-30T15:49:36.224Z,3.42
2023-06-30T15:52:03.554Z,4.28
2023-06-30T15:54:30.929Z,3.50
2023-06-30T15:56:58.789Z,4.00
2023-06-30T15:59:26.077Z,2.88
2023-06-30T16:01:53.440Z,7.95
2023-06-30T16:04:20.904Z,3.50
2023-06-30T16:06:48.347Z,4.63
2023-06-30T16:09:15.889Z,3.33
2023-06-30T16:11:43.251Z,3.15
2023-06-30T16:14:10.707Z,4.03
2023-06-30T16:16:38.154Z,5.30
2023-06-30T16:19:05.474Z,3.15
2023-06-30T16:21:33.144Z,5.60
2023-06-30T16:24:00.493Z,3.55
2023-06-30T16:26:27.909Z,3.42
2023-06-30T16:28:55.300Z,4.80
2023-06-30T16:31:22.582Z,6.55
2023-06-30T16:33:49.988Z,5.72
2023-06-30T16:36:17.298Z,3.50
2023-06-30T16:38:44.696Z,8.18
2023-06-30T16:41:12.205Z,4.10
2023-06-30T16:43:42.639Z,3.42
2023-06-30T16:46:09.940Z,5.53
2023-06-30T16:48:37.266Z,3.80
2023-06-30T16:51:04.626Z,3.38
2023-06-30T16:53:31.983Z,4.55
2023-06-30T16:55:59.315Z,3.58
2023-06-30T16:58:26.759Z,3.45
2023-06-30T17:00:54.343Z,4.22
2023-06-30T17:03:21.760Z,5.63
2023-06-30T17:05:49.437Z,3.92
2023-06-30T17:08:16.982Z,4.28
2023-06-30T17:10:46.733Z,4.32
2023-06-30T17:13:14.458Z,2.95
2023-06-30T17:15:41.788Z,3.42
2023-06-30T17:18:09.335Z,6.32
2023-06-30T17:20:36.699Z,3.00
2023-06-30T17:23:04.038Z,4.50
2023-06-30T17:25:31.319Z,5.03
2023-06-30T17:27:58.572Z,5.55
2023-06-30T17:30:25.929Z,5.88
2023-06-30T17:32:53.300Z,4.72
2023-06-30T17:35:20.693Z,3.78
2023-06-30T17:37:48.024Z,5.65
2023-06-30T17:40:15.307Z,3.83
2023-06-30T17:42:42.640Z,3.38
2023-06-30T17:45:10.075Z,6.78
2023-06-30T17:47:37.482Z,6.45
2023-06-30T17:50:04.887Z,7.65
2023-06-30T17:52:32.207Z,3.88
2023-06-30T17:54:59.515Z,7.75
2023-06-30T17:57:26.808Z,9.95
2023-06-30T17:59:54.207Z,4.93
2023-06-30T18:02:21.626Z,4.20
2023-06-30T18:04:50.241Z,3.60
2023-06-30T18:07:17.732Z,7.60
2023-06-30T18:09:45.342Z,5.07
2023-06-30T18:12:13.040Z,4.13
2023-06-30T18:14:40.787Z,5.85
2023-06-30T18:17:08.213Z,9.02
2023-06-30T18:22:14.611Z,6.57
2023-06-30T18:24:42.076Z,5.53
2023-06-30T18:27:09.359Z,6.70
2023-06-30T18:29:38.776Z,3.80
2023-06-30T18:32:06.412Z,4.97
2023-06-30T18:34:33.880Z,4.85
2023-06-30T18:37:01.264Z,5.35
2023-06-30T18:39:28.591Z,5.78
2023-06-30T18:41:56.079Z,8.43
2023-06-30T18:44:25.138Z,4.32
2023-06-30T18:46:52.799Z,6.07
2023-06-30T18:49:26.328Z,7.63
2023-06-30T18:51:55.243Z,5.63
2023-06-30T18:54:23.160Z,7.82
2023-06-30T18:56:50.612Z,7.45
2023-06-30T18:59:18.032Z,6.63
2023-06-30T19:01:45.426Z,9.57
2023-06-30T19:04:13.016Z,6.75
2023-06-30T19:06:41.145Z,4.75
2023-06-30T19:09:09.144Z,12.07
2023-06-30T19:11:36.737Z,4.80
2023-06-30T19:14:04.233Z,6.13
2023-06-30T19:16:31.654Z,8.80
2023-06-30T19:18:59.106Z,7.30
2023-06-30T19:21:26.477Z,5.97
2023-06-30T19:23:53.994Z,6.88
2023-06-30T19:26:22.081Z,6.88
2023-06-30T19:28:50.154Z,6.10
2023-06-30T19:31:17.833Z,6.80
2023-06-30T19:33:45.331Z,7.05
2023-06-30T19:36:12.968Z,8.25
2023-06-30T19:38:41.035Z,6.60
2023-06-30T19:41:08.849Z,11.18
2023-06-30T19:46:16.502Z,7.38
2023-06-30T19:48:44.802Z,7.63
2023-06-30T19:51:12.194Z,6.93
2023-06-30T19:53:40.777Z,7.63
2023-06-30T19:56:08.342Z,20.05
2023-06-30T19:58:35.735Z,26.70
2023-06-30T20:01:03.090Z,31.42
2023-06-30T20:03:30.607Z,24.75
2023-06-30T20:05:58.174Z,13.80
2023-06-30T20:08:25.565Z,7.72
2023-06-30T20:10:52.979Z,6.75
2023-06-30T20:13:20.376Z,10.88
2023-06-30T20:15:47.952Z,7.80
2023-06-30T20:18:18.016Z,6.60
2023-06-30T20:20:47.849Z,8.68
2023-06-30T20:23:15.184Z,6.78
2023-06-30T20:25:42.543Z,7.60
2023-06-30T20:28:09.903Z,7.90
2023-06-30T20:30:37.349Z,8.68
2023-06-30T20:33:04.892Z,9.82
2023-06-30T20:35:32.925Z,8.43
2023-06-30T20:38:00.288Z,8.95
2023-06-30T20:40:27.744Z,9.07
2023-06-30T20:42:55.111Z,8.50
2023-06-30T20:45:22.549Z,12.20
2023-06-30T20:47:52.261Z,9.05
2023-06-30T20:50:19.849Z,8.82
2023-06-30T20:52:47.276Z,12.40
2023-06-30T20:55:14.735Z,8.43
2023-06-30T20:57:42.575Z,9.23
2023-06-30T21:00:10.468Z,11.40
2023-06-30T21:02:37.927Z,13.95
2023-06-30T21:05:05.500Z,12.95
2023-06-30T21:07:32.919Z,9.75
2023-06-30T21:10:00.256Z,11.07
2023-06-30T21:12:27.601Z,14.10
2023-06-30T21:14:54.936Z,10.73
2023-06-30T21:17:22.442Z,11.38
2023-06-30T21:19:49.831Z,11.20
2023-06-30T21:22:17.384Z,12.50
2023-06-30T21:24:44.710Z,10.77
2023-06-30T21:27:12.143Z,9.30
2023-06-30T21:29:39.651Z,11.32
2023-06-30T21:32:08.232Z,11.95
2023-06-30T21:34:35.849Z,10.90
2023-06-30T21:37:03.231Z,11.80
2023-06-30T21:39:30.615Z,10.55
2023-06-30T21:41:59.122Z,12.80
2023-06-30T21:44:26.501Z,11.88
2023-06-30T21:46:54.082Z,14.80
2023-06-30T21:49:21.454Z,16.92
2023-06-30T21:51:48.910Z,14.95
2023-06-30T21:54:20.191Z,18.77
2023-06-30T21:56:51.632Z,14.52
2023-06-30T21:59:18.971Z,18.27
2023-06-30T22:01:46.480Z,14.52
2023-06-30T22:04:13.948Z,16.25
2023-06-30T22:06:41.421Z,15.45
2023-06-30T22:09:16.372Z,18.52
2023-06-30T22:11:44.600Z,15.88
2023-06-30T22:14:13.532Z,17.10
2023-06-30T22:16:41.233Z,18.50
2023-06-30T22:19:08.809Z,18.05
2023-06-30T22:21:36.143Z,15.23
2023-06-30T22:24:03.638Z,14.77
2023-06-30T22:26:30.983Z,13.20
2023-06-30T22:28:59.079Z,14.48
2023-06-30T22:31:26.571Z,13.38
2023-06-30T22:33:53.936Z,16.10
2023-06-30T22:36:21.398Z,15.10
2023-06-30T22:38:48.964Z,15.38
2023-06-30T22:41:16.338Z,19.48
2023-06-30T22:43:43.692Z,15.80
2023-06-30T22:46:11.153Z,14.98
2023-06-30T22:48:38.476Z,17.10
2023-06-30T22:51:05.869Z,17.15
2023-06-30T22:53:33.219Z,15.30
2023-06-30T22:56:00.781Z,27.08
2023-06-30T22:58:28.311Z,16.33
2023-06-30T23:00:55.670Z,15.70
2023-06-30T23:03:23.222Z,16.92
2023-06-30T23:05:50.649Z,16.83
2023-06-30T23:08:18.119Z,13.63
2023-06-30T23:10:45.879Z,15.38
2023-06-30T23:13:13.524Z,33.72
2023-06-30T23:15:40.940Z,26.52
2023-06-30T23:18:09.680Z,22.67
2023-06-30T23:20:37.191Z,25.50
2023-06-30T23:23:04.772Z,19.48
2023-06-30T23:25:34.660Z,16.08
2023-06-30T23:28:04.827Z,26.38
2023-06-30T23:30:34.041Z,15.88
2023-06-30T23:33:04.380Z,15.80
2023-06-30T23:35:32.410Z,14.55
2023-06-30T23:37:59.820Z,14.18
2023-06-30T23:40:27.270Z,12.43
2023-06-30T23:42:54.615Z,17.10
2023-06-30T23:45:22.652Z,14.52
2023-06-30T23:47:50.205Z,15.55
2023-06-30T23:50:17.698Z,17.05
2023-06-30T23:52:45.061Z,13.95
2023-06-30T23:55:13.102Z,12.25
2023-06-30T23:57:40.588Z,15.40
